This demonstration page uses our WeatherBlox Daily Observations layout. Learn more.

36.17497, -115.13722

Hourly Observations for July 10, 2019

Temp ( °F °C ) Dew Point ( °F °C ) Humidity (%) Winds ( mph kmh ) Pressure ( in mb ) Visibility ( mi km ) Precip ( " mm )
12:53 am 00:53 Clear 86 30 33 0.6 15 15 Calm 29.91 1013 10 16.09344 0 0
1:53 am 01:53 Clear 81 27.2 35 1.7 19 19 WNW 6 9 29.91 1013 10 16.09344 0 0
2:53 am 02:53 Clear 78 25.6 36 2.2 22 22 NNW 3 6 29.91 1013 10 16.09344 0 0
3:53 am 03:53 Clear 78 25.6 34 1.1 20 20 NNW 5 7 29.94 1014 10 16.09344 0 0
4:53 am 04:53 Clear 76 24.4 34 1.1 22 22 NNW 5 7 29.94 1014 10 16.09344 0 0
5:53 am 05:53 Sunny 74 23.3 36 2.2 25 25 NW 6 9 29.97 1015 10 16.09344 0 0
6:53 am 06:53 Sunny 77 25 38 3.3 24 24 N 5 7 30 1016 10 16.09344 0 0
7:53 am 07:53 Sunny 83 28.3 37 2.8 19 19 N 5 7 30 1016 10 16.09344 0 0
8:53 am 08:53 Sunny 89 31.7 31 -0.6 12 12 Calm 30 1016 10 16.09344 0 0
9:53 am 09:53 Sunny 92 33.3 31 -0.6 11 11 ENE 3 6 30 1016 10 16.09344 0 0
10:53 am 10:53 Sunny 95 35 28 -2.2 9 9 VRB 6 9 30 1016 10 16.09344 0 0
11:53 am 11:53 Sunny 97 36.1 28 -2.2 9 9 SSE 10 17 29.97 1015 10 16.09344 0 0
12:53 pm 12:53 Sunny 99 37.2 28 -2.2 8 8 SSE 9 15 29.97 1015 10 16.09344 0 0
1:53 pm 13:53 Sunny 102 38.9 28 -2.2 7 7 SSE 13 20 29.94 1014 10 16.09344 0 0
2:53 pm 14:53 Sunny 104 40 29 -1.7 7 7 VRB 5 7 29.91 1013 10 16.09344 0 0
3:53 pm 15:53 Sunny 104 40 29 -1.7 7 7 E 7 11 29.88 1012 10 16.09344 0 0
4:53 pm 16:53 Sunny 104 40 30 -1.1 7 7 SE 9 15 29.88 1012 10 16.09344 0 0
5:53 pm 17:53 Sunny 103 39.4 31 -0.6 8 8 E 10 17 29.85 1011 10 16.09344 0 0
6:53 pm 18:53 Sunny 102 38.9 31 -0.6 8 8 E 8 13 29.85 1011 10 16.09344 0 0
7:53 pm 19:53 Sunny 101 38.3 32 0 9 9 E 10 17 29.85 1011 10 16.09344 0 0
8:53 pm 20:53 Clear 99 37.2 36 2.2 11 11 SE 10 17 29.85 1011 10 16.09344 0 0
9:53 pm 21:53 Clear 97 36.1 36 2.2 12 12 W 8 13 29.88 1012 10 16.09344 0 0
10:53 pm 22:53 Clear 95 35 35 1.7 12 12 W 7 11 29.88 1012 10 16.09344 0 0
11:53 pm 23:53 Clear 91 32.8 36 2.2 14 14 Calm 29.88 1012 10 16.09344 0 0

Powered by AerisWeather